Hlavní strana
METAR-TAF:

METAR-TAF

Letiště :

Khon Kaen, Thajsko

zeměpisná šířka: 16-26N, zeměpisná délka: 102-50E, výška: 165 m

Aktuální stav počasí

Zpráva byla vytvořena před 24 minutami, v 12:00 UTC
vítr z různých směrů 2 kt
Teplota 29°C
Vlhkost vzduchu 79%
Tlak 1007 hPa
Viditelnost 10 km a více
Polojasno ve výšce 3500 ft
Polojasno ve výšce 10000 ft

METAR: VTUK 041200Z VRB02KT 9999 SCT035 SCT100 29/25 Q1007 NOSIG

Čas: 19:24 (12:24 UTC)

Předpověď počasí

Zpráva byla vytvořena před 1 hodinou a 24 minutami, v 11:00 UTC
Předpověď platná od 04 v 12 UTC do 05 v 12 UTC
Jihozápadní vítr 5 kt
Viditelnost 10 km a více
Polojasno ve výšce 3000 ft
Polojasno ve výšce 10000 ft

TAF: VTUK 041100Z 0412/0512 22005KT 9999 SCT030 SCT100

Stav a předpovědi počasí z více než 4 000 letišť (zprávy METAR a TAF).

Červené a žluté tečky na mapě představují dostupné meteorologické stanice.

Když kurzor umístíte na tečku, zobrazí se název stanice.

Pak kliknutím zobrazíte stav a předpověď počasí.

Chcete-li změnit mapu, kliknutím na zelené tlačítko se znaménkem +mapu přiblížíte, kliknutím na zelené tlačítko se znaménkem – mapu oddálíte a kliknutím na zelené šipky přejdete na sousední mapy.


METAR-TAF: